Trigger — WDF7822 — position and weather

sailwx.info

Track history (hours):
 
Tides and Currents Weather Stations Pressure Air Temp Water Temp Dewpoint Dewpoint Depression Visibility Wind Speed Wind Dir Waves Ship Positions

Trigger

Owner: Harley Marine Services, INC, Seattle, WA. More information available from US FCC via Universal Licensing System.

Last reported at 2018-Jun-19 15:37 UTC. Time now 2018-Jun-19 20:22 UTC.
Position N 29°44' W 095°02'.

Length 31 m; draft 3.2 m.

Type: Towing. MMSI: 367488490.

Date/timePositionNaut miles runAvg speedWind from/ knotsBaromVisibWave heightAir tempDewpointWater temp
2018-Jun-19 15:37N 29°44' W 095°02'2 7.1
2018-Jun-19 15:21N 29°42' W 095°01'3 7.5
2018-Jun-19 14:54N 29°40' W 094°58'4 7.8
2018-Jun-19 14:26N 29°36' W 094°57'15 7.7
2018-Jun-19 12:30N 29°23' W 094°49'2 4.3
2018-Jun-19 11:56N 29°22' W 094°51'2 3.7
2018-Jun-19 11:25N 29°22' W 094°53'0 0.0
2018-Jun-19 11:01N 29°22' W 094°53'0 0.0
2018-Jun-19 07:21N 29°22' W 094°53'0 0.0
2018-Jun-19 06:54N 29°22' W 094°53'0 0.0
2018-Jun-19 06:27N 29°22' W 094°53'0 0.0
2018-Jun-19 05:52N 29°22' W 094°53'0 0.0
2018-Jun-19 05:29N 29°22' W 094°53'0 0.0
2018-Jun-19 03:59N 29°22' W 094°53'0 0.0
2018-Jun-19 03:31N 29°22' W 094°53'0 0.0
2018-Jun-19 03:00N 29°22' W 094°53'0 0.0
2018-Jun-19 01:58N 29°22' W 094°53'0 0.0
2018-Jun-19 01:30N 29°22' W 094°53'0 0.0
2018-Jun-19 00:49N 29°22' W 094°53'0 0.0
2018-Jun-19 00:27N 29°22' W 094°53'0 0.0
2018-Jun-18 23:40N 29°22' W 094°53'0 0.0
2018-Jun-18 23:28N 29°22' W 094°53'0 0.0
2018-Jun-18 22:48N 29°22' W 094°53'0 0.0
2018-Jun-18 22:21N 29°22' W 094°53'0 0.0
2018-Jun-18 21:58N 29°22' W 094°53'0 0.3
2018-Jun-18 21:30N 29°22' W 094°53'1 2.4
2018-Jun-18 21:00N 29°23' W 094°52'0 0.0
2018-Jun-18 20:30N 29°23' W 094°52'0 0.0
2018-Jun-18 20:00N 29°23' W 094°52'0 0.0
2018-Jun-18 19:30N 29°23' W 094°52'0 0.0
2018-Jun-18 19:00N 29°23' W 094°52'0 0.0
2018-Jun-18 18:30N 29°23' W 094°52'0 0.0
2018-Jun-18 18:01N 29°23' W 094°52'0 0.0
2018-Jun-18 17:30N 29°23' W 094°52'0 0.0
2018-Jun-18 17:00N 29°23' W 094°52'0 0.0
2018-Jun-18 16:30N 29°23' W 094°52'0 0.0
2018-Jun-18 16:01N 29°23' W 094°52'0 0.0
2018-Jun-18 15:30N 29°23' W 094°52'0 0.0
2018-Jun-18 15:00N 29°23' W 094°52'0 0.0
2018-Jun-18 14:30N 29°23' W 094°52'0 0.0
2018-Jun-18 14:00N 29°23' W 094°52'0 0.0
2018-Jun-18 13:30N 29°23' W 094°52'0 0.0
2018-Jun-18 13:01N 29°23' W 094°52'0 0.0
2018-Jun-18 12:31N 29°23' W 094°52'0 0.0
2018-Jun-18 12:00N 29°23' W 094°52'0 0.0
2018-Jun-18 11:30N 29°23' W 094°52'0 0.0
2018-Jun-18 11:00N 29°23' W 094°52'0 0.0
2018-Jun-18 10:30N 29°23' W 094°52'0 0.0
2018-Jun-18 10:01N 29°23' W 094°52'0 0.0
2018-Jun-18 09:30N 29°23' W 094°52'0 0.0
2018-Jun-18 09:00N 29°23' W 094°52'0 0.0
2018-Jun-18 08:30N 29°23' W 094°52'0 0.0
2018-Jun-18 08:01N 29°23' W 094°52'0 0.0
2018-Jun-18 07:30N 29°23' W 094°52'0 0.0
2018-Jun-18 07:01N 29°23' W 094°52'0 0.0
2018-Jun-18 06:30N 29°23' W 094°52'0 0.0
2018-Jun-18 06:01N 29°23' W 094°52'0 0.0
2018-Jun-18 05:30N 29°23' W 094°52'0 0.0
2018-Jun-18 05:00N 29°23' W 094°52'0 0.0
2018-Jun-18 04:30N 29°23' W 094°52'0 0.0
2018-Jun-18 04:01N 29°23' W 094°52'0 0.0
2018-Jun-18 03:29N 29°23' W 094°52'0 0.0
2018-Jun-18 03:01N 29°23' W 094°52'0 0.0
2018-Jun-18 02:30N 29°23' W 094°52'0 0.0
2018-Jun-18 02:01N 29°23' W 094°52'0 0.0
2018-Jun-18 01:30N 29°23' W 094°52'0 0.0
2018-Jun-18 01:01N 29°23' W 094°52'0 0.0
2018-Jun-18 00:30N 29°23' W 094°52'0 0.0
2018-Jun-17 23:59N 29°23' W 094°52'0 0.2
2018-Jun-17 23:30N 29°22' W 094°52'0 0.0
2018-Jun-17 23:00N 29°22' W 094°52'0 0.0
2018-Jun-17 22:31N 29°22' W 094°52'0 0.0
2018-Jun-17 22:01N 29°23' W 094°52'0 0.0
2018-Jun-17 21:30N 29°22' W 094°52'0 0.0
2018-Jun-17 20:58N 29°23' W 094°52'0 0.0
2018-Jun-17 20:30N 29°22' W 094°52'0 0.0
2018-Jun-17 20:00N 29°22' W 094°52'0 0.0
2018-Jun-17 19:31N 29°22' W 094°52'0 0.0
2018-Jun-17 19:00N 29°22' W 094°52'0 0.0
2018-Jun-17 18:30N 29°22' W 094°52'0 0.0
2018-Jun-17 18:00N 29°22' W 094°52'0 0.0
2018-Jun-17 17:30N 29°22' W 094°52'0 0.0
2018-Jun-17 16:56N 29°22' W 094°52'0 0.0
2018-Jun-17 16:30N 29°22' W 094°52'0 0.0
2018-Jun-17 15:59N 29°22' W 094°52'0 0.0
2018-Jun-17 15:30N 29°22' W 094°52'0 0.0
2018-Jun-17 14:55N 29°22' W 094°52'0 0.0
2018-Jun-17 14:28N 29°22' W 094°52'0 0.0
2018-Jun-17 13:59N 29°22' W 094°52'0 0.0
2018-Jun-17 13:27N 29°23' W 094°52'14 4.6
2018-Jun-17 10:27N 29°36' W 094°57'4 8.2
2018-Jun-17 10:00N 29°39' W 094°58'4 0.1
2018-Jun-15 17:25N 29°42' W 095°01'3 7.3
2018-Jun-15 16:58N 29°40' W 094°58'18 8.2
2018-Jun-15 14:46N 29°24' W 094°49'2 7.9
2018-Jun-15 14:30N 29°22' W 094°49'4 7.6
2018-Jun-15 13:59N 29°23' W 094°53'1 2.2
2018-Jun-15 13:28N 29°22' W 094°53'0 0.0
2018-Jun-15 13:00N 29°22' W 094°53'0 0.0
2018-Jun-15 12:30N 29°22' W 094°53'0 0.0
2018-Jun-15 12:00N 29°22' W 094°53'0 0.0
2018-Jun-15 11:30N 29°22' W 094°53'0 0.0
2018-Jun-15 11:00N 29°22' W 094°53'1 1.5
2018-Jun-15 10:30N 29°23' W 094°53'4 7.3
2018-Jun-15 10:00N 29°22' W 094°49'2 4.1
2018-Jun-15 09:30N 29°24' W 094°49'11 7.1
2018-Jun-15 07:57N 29°34' W 094°55'5 7.7
2018-Jun-15 07:19N 29°38' W 094°58'3 8.0
2018-Jun-15 07:00N 29°40' W 094°59'9 0.2
2018-Jun-13 03:43N 29°47' W 095°06'0 0.0
2018-Jun-13 03:25N 29°47' W 095°06'6 1.0
2018-Jun-12 21:16N 29°42' W 095°01'2 7.8
2018-Jun-12 20:58N 29°41' W 094°59'4 8.0
2018-Jun-12 20:30N 29°37' W 094°58'14 8.0
2018-Jun-12 18:48N 29°25' W 094°50'2 7.7
2018-Jun-12 18:30N 29°23' W 094°49'3 5.7
2018-Jun-12 18:00N 29°21' W 094°47'0 0.1
2018-Jun-12 17:29N 29°21' W 094°47'0 0.0
2018-Jun-12 17:00N 29°21' W 094°47'0 0.0
2018-Jun-12 16:30N 29°21' W 094°47'0 0.0
2018-Jun-12 14:47N 29°21' W 094°47'0 0.0
2018-Jun-12 14:20N 29°21' W 094°47'0 0.1
2018-Jun-12 13:46N 29°21' W 094°47'2 5.7
2018-Jun-12 13:25N 29°23' W 094°48'3 6.7
2018-Jun-12 12:59N 29°25' W 094°50'12 7.3
2018-Jun-12 11:23N 29°35' W 094°56'3 7.6
2018-Jun-12 11:00N 29°38' W 094°58'3 6.7
2018-Jun-12 10:30N 29°41' W 094°60'0 0.1
2018-Jun-12 09:58N 29°41' W 094°60'0 0.0
2018-Jun-12 09:30N 29°41' W 094°60'0 0.0
2018-Jun-12 08:58N 29°41' W 094°60'0 0.0
2018-Jun-12 08:29N 29°41' W 094°60'0 0.0
2018-Jun-12 07:59N 29°41' W 094°60'0 0.0
2018-Jun-12 07:30N 29°41' W 094°60'0 0.0
2018-Jun-12 06:55N 29°41' W 094°60'0 0.0
2018-Jun-12 06:29N 29°41' W 094°60'0 0.0
2018-Jun-12 05:59N 29°41' W 094°60'0 0.0
2018-Jun-12 05:30N 29°41' W 094°60'0 0.0
2018-Jun-12 05:00N 29°41' W 094°60'0 0.0
2018-Jun-12 04:30N 29°41' W 094°60'0 0.0
2018-Jun-12 04:00N 29°41' W 094°60'0 0.0
2018-Jun-12 03:29N 29°41' W 094°60'0 0.0
2018-Jun-12 03:00N 29°41' W 094°60'0 0.0
2018-Jun-12 02:30N 29°41' W 094°60'0 0.0
2018-Jun-12 02:00N 29°41' W 094°60'0 0.0
2018-Jun-12 01:30N 29°41' W 094°60'0 0.0
2018-Jun-12 00:39N 29°41' W 094°60'0 0.0
2018-Jun-12 00:29N 29°41' W 094°60'0 0.0
2018-Jun-12 00:00N 29°41' W 094°60'0 0.0
2018-Jun-11 23:30N 29°41' W 094°60'0 0.3
2018-Jun-11 23:00N 29°41' W 094°59'2 0.1
2018-Jun-10 20:54N 29°42' W 095°01'3 7.6
2018-Jun-10 20:30N 29°40' W 094°58'4 8.1
2018-Jun-10 19:59N 29°36' W 094°57'12 8.0
2018-Jun-10 18:26N 29°25' W 094°50'4 8.0
2018-Jun-10 18:00N 29°22' W 094°48'3 6.6
2018-Jun-10 17:30N 29°19' W 094°47'1 0.2
2018-Jun-10 12:07N 29°19' W 094°48'0 0.4
2018-Jun-10 12:00N 29°18' W 094°48'1 0.1
2018-Jun-10 05:33N 29°19' W 094°47'0 0.2
2018-Jun-10 05:30N 29°19' W 094°47'2 3.2
2018-Jun-10 05:00N 29°20' W 094°46'5 8.1
2018-Jun-10 04:22N 29°25' W 094°50'12 8.3
2018-Jun-10 02:53N 29°35' W 094°56'3 8.2
2018-Jun-10 02:30N 29°38' W 094°58'  
Track history (hours):
 
Tides and Currents Weather Stations Pressure Air Temp Water Temp Dewpoint Dewpoint Depression Visibility Wind Speed Wind Dir Waves Ship Positions

Trigger

Owner: Harley Marine Services, INC, Seattle, WA. More information available from US FCC via Universal Licensing System.

Last reported at 2018-Jun-19 15:37 UTC. Time now 2018-Jun-19 20:22 UTC.
Position N 29°44' W 095°02'.

Length 31 m; draft 3.2 m.

Type: Towing. MMSI: 367488490.

Date/timePositionNaut miles runAvg speedWind from/ knotsBaromVisibWave heightAir tempDewpointWater temp
2018-Jun-19 15:37N 29°44' W 095°02'2 7.1
2018-Jun-19 15:21N 29°42' W 095°01'3 7.5
2018-Jun-19 14:54N 29°40' W 094°58'4 7.8
2018-Jun-19 14:26N 29°36' W 094°57'15 7.7
2018-Jun-19 12:30N 29°23' W 094°49'2 4.3
2018-Jun-19 11:56N 29°22' W 094°51'2 3.7
2018-Jun-19 11:25N 29°22' W 094°53'0 0.0
2018-Jun-19 11:01N 29°22' W 094°53'0 0.0
2018-Jun-19 07:21N 29°22' W 094°53'0 0.0
2018-Jun-19 06:54N 29°22' W 094°53'0 0.0
2018-Jun-19 06:27N 29°22' W 094°53'0 0.0
2018-Jun-19 05:52N 29°22' W 094°53'0 0.0
2018-Jun-19 05:29N 29°22' W 094°53'0 0.0
2018-Jun-19 03:59N 29°22' W 094°53'0 0.0
2018-Jun-19 03:31N 29°22' W 094°53'0 0.0
2018-Jun-19 03:00N 29°22' W 094°53'0 0.0
2018-Jun-19 01:58N 29°22' W 094°53'0 0.0
2018-Jun-19 01:30N 29°22' W 094°53'0 0.0
2018-Jun-19 00:49N 29°22' W 094°53'0 0.0
2018-Jun-19 00:27N 29°22' W 094°53'0 0.0
2018-Jun-18 23:40N 29°22' W 094°53'0 0.0
2018-Jun-18 23:28N 29°22' W 094°53'0 0.0
2018-Jun-18 22:48N 29°22' W 094°53'0 0.0
2018-Jun-18 22:21N 29°22' W 094°53'0 0.0
2018-Jun-18 21:58N 29°22' W 094°53'0 0.3
2018-Jun-18 21:30N 29°22' W 094°53'1 2.4
2018-Jun-18 21:00N 29°23' W 094°52'0 0.0
2018-Jun-18 20:30N 29°23' W 094°52'0 0.0
2018-Jun-18 20:00N 29°23' W 094°52'0 0.0
2018-Jun-18 19:30N 29°23' W 094°52'0 0.0
2018-Jun-18 19:00N 29°23' W 094°52'0 0.0
2018-Jun-18 18:30N 29°23' W 094°52'0 0.0
2018-Jun-18 18:01N 29°23' W 094°52'0 0.0
2018-Jun-18 17:30N 29°23' W 094°52'0 0.0
2018-Jun-18 17:00N 29°23' W 094°52'0 0.0
2018-Jun-18 16:30N 29°23' W 094°52'0 0.0
2018-Jun-18 16:01N 29°23' W 094°52'0 0.0
2018-Jun-18 15:30N 29°23' W 094°52'0 0.0
2018-Jun-18 15:00N 29°23' W 094°52'0 0.0
2018-Jun-18 14:30N 29°23' W 094°52'0 0.0
2018-Jun-18 14:00N 29°23' W 094°52'0 0.0
2018-Jun-18 13:30N 29°23' W 094°52'0 0.0
2018-Jun-18 13:01N 29°23' W 094°52'0 0.0
2018-Jun-18 12:31N 29°23' W 094°52'0 0.0
2018-Jun-18 12:00N 29°23' W 094°52'0 0.0
2018-Jun-18 11:30N 29°23' W 094°52'0 0.0
2018-Jun-18 11:00N 29°23' W 094°52'0 0.0
2018-Jun-18 10:30N 29°23' W 094°52'0 0.0
2018-Jun-18 10:01N 29°23' W 094°52'0 0.0
2018-Jun-18 09:30N 29°23' W 094°52'0 0.0
2018-Jun-18 09:00N 29°23' W 094°52'0 0.0
2018-Jun-18 08:30N 29°23' W 094°52'0 0.0
2018-Jun-18 08:01N 29°23' W 094°52'0 0.0
2018-Jun-18 07:30N 29°23' W 094°52'0 0.0
2018-Jun-18 07:01N 29°23' W 094°52'0 0.0
2018-Jun-18 06:30N 29°23' W 094°52'0 0.0
2018-Jun-18 06:01N 29°23' W 094°52'0 0.0
2018-Jun-18 05:30N 29°23' W 094°52'0 0.0
2018-Jun-18 05:00N 29°23' W 094°52'0 0.0
2018-Jun-18 04:30N 29°23' W 094°52'0 0.0
2018-Jun-18 04:01N 29°23' W 094°52'0 0.0
2018-Jun-18 03:29N 29°23' W 094°52'0 0.0
2018-Jun-18 03:01N 29°23' W 094°52'0 0.0
2018-Jun-18 02:30N 29°23' W 094°52'0 0.0
2018-Jun-18 02:01N 29°23' W 094°52'0 0.0
2018-Jun-18 01:30N 29°23' W 094°52'0 0.0
2018-Jun-18 01:01N 29°23' W 094°52'0 0.0
2018-Jun-18 00:30N 29°23' W 094°52'0 0.0
2018-Jun-17 23:59N 29°23' W 094°52'0 0.2
2018-Jun-17 23:30N 29°22' W 094°52'0 0.0
2018-Jun-17 23:00N 29°22' W 094°52'0 0.0
2018-Jun-17 22:31N 29°22' W 094°52'0 0.0
2018-Jun-17 22:01N 29°23' W 094°52'0 0.0
2018-Jun-17 21:30N 29°22' W 094°52'0 0.0
2018-Jun-17 20:58N 29°23' W 094°52'0 0.0
2018-Jun-17 20:30N 29°22' W 094°52'0 0.0
2018-Jun-17 20:00N 29°22' W 094°52'0 0.0
2018-Jun-17 19:31N 29°22' W 094°52'0 0.0
2018-Jun-17 19:00N 29°22' W 094°52'0 0.0
2018-Jun-17 18:30N 29°22' W 094°52'0 0.0
2018-Jun-17 18:00N 29°22' W 094°52'0 0.0
2018-Jun-17 17:30N 29°22' W 094°52'0 0.0
2018-Jun-17 16:56N 29°22' W 094°52'0 0.0
2018-Jun-17 16:30N 29°22' W 094°52'0 0.0
2018-Jun-17 15:59N 29°22' W 094°52'0 0.0
2018-Jun-17 15:30N 29°22' W 094°52'0 0.0
2018-Jun-17 14:55N 29°22' W 094°52'0 0.0
2018-Jun-17 14:28N 29°22' W 094°52'0 0.0
2018-Jun-17 13:59N 29°22' W 094°52'0 0.0
2018-Jun-17 13:27N 29°23' W 094°52'14 4.6
2018-Jun-17 10:27N 29°36' W 094°57'4 8.2
2018-Jun-17 10:00N 29°39' W 094°58'4 0.1
2018-Jun-15 17:25N 29°42' W 095°01'3 7.3
2018-Jun-15 16:58N 29°40' W 094°58'18 8.2
2018-Jun-15 14:46N 29°24' W 094°49'2 7.9
2018-Jun-15 14:30N 29°22' W 094°49'4 7.6
2018-Jun-15 13:59N 29°23' W 094°53'1 2.2
2018-Jun-15 13:28N 29°22' W 094°53'0 0.0
2018-Jun-15 13:00N 29°22' W 094°53'0 0.0
2018-Jun-15 12:30N 29°22' W 094°53'0 0.0
2018-Jun-15 12:00N 29°22' W 094°53'0 0.0
2018-Jun-15 11:30N 29°22' W 094°53'0 0.0
2018-Jun-15 11:00N 29°22' W 094°53'1 1.5
2018-Jun-15 10:30N 29°23' W 094°53'4 7.3
2018-Jun-15 10:00N 29°22' W 094°49'2 4.1
2018-Jun-15 09:30N 29°24' W 094°49'11 7.1
2018-Jun-15 07:57N 29°34' W 094°55'5 7.7
2018-Jun-15 07:19N 29°38' W 094°58'3 8.0
2018-Jun-15 07:00N 29°40' W 094°59'9 0.2
2018-Jun-13 03:43N 29°47' W 095°06'0 0.0
2018-Jun-13 03:25N 29°47' W 095°06'6 1.0
2018-Jun-12 21:16N 29°42' W 095°01'2 7.8
2018-Jun-12 20:58N 29°41' W 094°59'4 8.0
2018-Jun-12 20:30N 29°37' W 094°58'14 8.0
2018-Jun-12 18:48N 29°25' W 094°50'2 7.7
2018-Jun-12 18:30N 29°23' W 094°49'3 5.7
2018-Jun-12 18:00N 29°21' W 094°47'0 0.1
2018-Jun-12 17:29N 29°21' W 094°47'0 0.0
2018-Jun-12 17:00N 29°21' W 094°47'0 0.0
2018-Jun-12 16:30N 29°21' W 094°47'0 0.0
2018-Jun-12 14:47N 29°21' W 094°47'0 0.0
2018-Jun-12 14:20N 29°21' W 094°47'0 0.1
2018-Jun-12 13:46N 29°21' W 094°47'2 5.7
2018-Jun-12 13:25N 29°23' W 094°48'3 6.7
2018-Jun-12 12:59N 29°25' W 094°50'12 7.3
2018-Jun-12 11:23N 29°35' W 094°56'3 7.6
2018-Jun-12 11:00N 29°38' W 094°58'3 6.7
2018-Jun-12 10:30N 29°41' W 094°60'0 0.1
2018-Jun-12 09:58N 29°41' W 094°60'0 0.0
2018-Jun-12 09:30N 29°41' W 094°60'0 0.0
2018-Jun-12 08:58N 29°41' W 094°60'0 0.0
2018-Jun-12 08:29N 29°41' W 094°60'0 0.0
2018-Jun-12 07:59N 29°41' W 094°60'0 0.0
2018-Jun-12 07:30N 29°41' W 094°60'0 0.0
2018-Jun-12 06:55N 29°41' W 094°60'0 0.0
2018-Jun-12 06:29N 29°41' W 094°60'0 0.0
2018-Jun-12 05:59N 29°41' W 094°60'0 0.0
2018-Jun-12 05:30N 29°41' W 094°60'0 0.0
2018-Jun-12 05:00N 29°41' W 094°60'0 0.0
2018-Jun-12 04:30N 29°41' W 094°60'0 0.0
2018-Jun-12 04:00N 29°41' W 094°60'0 0.0
2018-Jun-12 03:29N 29°41' W 094°60'0 0.0
2018-Jun-12 03:00N 29°41' W 094°60'0 0.0
2018-Jun-12 02:30N 29°41' W 094°60'0 0.0
2018-Jun-12 02:00N 29°41' W 094°60'0 0.0
2018-Jun-12 01:30N 29°41' W 094°60'0 0.0
2018-Jun-12 00:39N 29°41' W 094°60'0 0.0
2018-Jun-12 00:29N 29°41' W 094°60'0 0.0
2018-Jun-12 00:00N 29°41' W 094°60'0 0.0
2018-Jun-11 23:30N 29°41' W 094°60'0 0.3
2018-Jun-11 23:00N 29°41' W 094°59'2 0.1
2018-Jun-10 20:54N 29°42' W 095°01'3 7.6
2018-Jun-10 20:30N 29°40' W 094°58'4 8.1
2018-Jun-10 19:59N 29°36' W 094°57'12 8.0
2018-Jun-10 18:26N 29°25' W 094°50'4 8.0
2018-Jun-10 18:00N 29°22' W 094°48'3 6.6
2018-Jun-10 17:30N 29°19' W 094°47'1 0.2
2018-Jun-10 12:07N 29°19' W 094°48'0 0.4
2018-Jun-10 12:00N 29°18' W 094°48'1 0.1
2018-Jun-10 05:33N 29°19' W 094°47'0 0.2
2018-Jun-10 05:30N 29°19' W 094°47'2 3.2
2018-Jun-10 05:00N 29°20' W 094°46'5 8.1
2018-Jun-10 04:22N 29°25' W 094°50'12 8.3
2018-Jun-10 02:53N 29°35' W 094°56'3 8.2
2018-Jun-10 02:30N 29°38' W 094°58'  

Dump ship's entire track history